sensor_id;sensor_type;location;lat;lon;timestamp;P1;durP1;ratioP1;P2;durP2;ratioP2
8893;SDS011;4483;48.622;9.230;2022-12-18T00:01:49;29.10;;;13.97;;
8893;SDS011;4483;48.622;9.230;2022-12-18T00:04:16;28.43;;;13.80;;
8893;SDS011;4483;48.622;9.230;2022-12-18T00:06:46;31.33;;;14.67;;
8893;SDS011;4483;48.622;9.230;2022-12-18T00:09:13;37.87;;;14.70;;
8893;SDS011;4483;48.622;9.230;2022-12-18T00:11:41;27.77;;;14.03;;
8893;SDS011;4483;48.622;9.230;2022-12-18T00:14:08;26.43;;;13.87;;
8893;SDS011;4483;48.622;9.230;2022-12-18T00:16:36;31.23;;;14.67;;
8893;SDS011;4483;48.622;9.230;2022-12-18T00:19:03;31.53;;;15.07;;
8893;SDS011;4483;48.622;9.230;2022-12-18T00:21:31;26.90;;;15.40;;
8893;SDS011;4483;48.622;9.230;2022-12-18T00:23:59;29.87;;;15.20;;
8893;SDS011;4483;48.622;9.230;2022-12-18T00:26:26;31.77;;;14.13;;
8893;SDS011;4483;48.622;9.230;2022-12-18T00:28:57;34.07;;;16.20;;
8893;SDS011;4483;48.622;9.230;2022-12-18T00:31:25;29.03;;;15.00;;
8893;SDS011;4483;48.622;9.230;2022-12-18T00:33:53;29.50;;;15.13;;
8893;SDS011;4483;48.622;9.230;2022-12-18T00:36:21;31.73;;;16.03;;
8893;SDS011;4483;48.622;9.230;2022-12-18T00:38:49;30.87;;;15.37;;
8893;SDS011;4483;48.622;9.230;2022-12-18T00:41:17;36.77;;;16.53;;
8893;SDS011;4483;48.622;9.230;2022-12-18T00:43:59;31.07;;;15.27;;
8893;SDS011;4483;48.622;9.230;2022-12-18T00:46:26;27.67;;;15.37;;
8893;SDS011;4483;48.622;9.230;2022-12-18T00:48:53;27.03;;;14.20;;
8893;SDS011;4483;48.622;9.230;2022-12-18T00:51:19;29.13;;;14.80;;
8893;SDS011;4483;48.622;9.230;2022-12-18T00:53:46;28.40;;;14.53;;
8893;SDS011;4483;48.622;9.230;2022-12-18T00:56:13;28.87;;;14.70;;
8893;SDS011;4483;48.622;9.230;2022-12-18T00:58:39;28.53;;;14.10;;
8893;SDS011;4483;48.622;9.230;2022-12-18T01:01:07;28.47;;;13.97;;
8893;SDS011;4483;48.622;9.230;2022-12-18T01:03:34;28.37;;;14.33;;
8893;SDS011;4483;48.622;9.230;2022-12-18T01:06:05;26.53;;;13.50;;
8893;SDS011;4483;48.622;9.230;2022-12-18T01:08:32;30.33;;;14.50;;
8893;SDS011;4483;48.622;9.230;2022-12-18T01:10:59;29.77;;;13.87;;
8893;SDS011;4483;48.622;9.230;2022-12-18T01:13:25;31.83;;;14.47;;
8893;SDS011;4483;48.622;9.230;2022-12-18T01:15:52;26.63;;;14.53;;
8893;SDS011;4483;48.622;9.230;2022-12-18T01:18:20;28.17;;;14.07;;
8893;SDS011;4483;48.622;9.230;2022-12-18T01:20:47;24.63;;;13.60;;
8893;SDS011;4483;48.622;9.230;2022-12-18T01:23:13;23.50;;;13.77;;
8893;SDS011;4483;48.622;9.230;2022-12-18T01:25:40;28.83;;;15.03;;
8893;SDS011;4483;48.622;9.230;2022-12-18T01:28:07;29.87;;;15.10;;
8893;SDS011;4483;48.622;9.230;2022-12-18T01:30:33;26.03;;;13.67;;
8893;SDS011;4483;48.622;9.230;2022-12-18T01:33:00;27.37;;;14.33;;
8893;SDS011;4483;48.622;9.230;2022-12-18T01:35:28;28.43;;;14.27;;
8893;SDS011;4483;48.622;9.230;2022-12-18T01:37:54;26.00;;;13.87;;
8893;SDS011;4483;48.622;9.230;2022-12-18T01:40:21;26.30;;;14.50;;
8893;SDS011;4483;48.622;9.230;2022-12-18T01:42:49;25.13;;;13.50;;
8893;SDS011;4483;48.622;9.230;2022-12-18T01:45:24;31.17;;;14.70;;
8893;SDS011;4483;48.622;9.230;2022-12-18T01:47:53;30.87;;;13.23;;
8893;SDS011;4483;48.622;9.230;2022-12-18T01:50:22;25.63;;;13.67;;
8893;SDS011;4483;48.622;9.230;2022-12-18T01:52:52;31.70;;;13.23;;
8893;SDS011;4483;48.622;9.230;2022-12-18T01:55:22;23.73;;;12.57;;
8893;SDS011;4483;48.622;9.230;2022-12-18T01:57:52;23.90;;;13.27;;
8893;SDS011;4483;48.622;9.230;2022-12-18T02:00:21;25.57;;;13.03;;
8893;SDS011;4483;48.622;9.230;2022-12-18T02:02:48;23.97;;;12.70;;
8893;SDS011;4483;48.622;9.230;2022-12-18T02:05:16;23.60;;;12.80;;
8893;SDS011;4483;48.622;9.230;2022-12-18T02:07:46;26.30;;;12.93;;
8893;SDS011;4483;48.622;9.230;2022-12-18T02:10:25;28.53;;;13.87;;
8893;SDS011;4483;48.622;9.230;2022-12-18T02:13:00;22.33;;;12.60;;
8893;SDS011;4483;48.622;9.230;2022-12-18T02:15:35;26.40;;;14.00;;
8893;SDS011;4483;48.622;9.230;2022-12-18T02:18:07;25.90;;;14.43;;
8893;SDS011;4483;48.622;9.230;2022-12-18T02:20:39;29.23;;;14.90;;
8893;SDS011;4483;48.622;9.230;2022-12-18T02:23:12;24.73;;;12.60;;
8893;SDS011;4483;48.622;9.230;2022-12-18T02:25:57;23.37;;;12.43;;
8893;SDS011;4483;48.622;9.230;2022-12-18T02:28:36;22.13;;;12.03;;
8893;SDS011;4483;48.622;9.230;2022-12-18T02:31:08;30.43;;;13.67;;
8893;SDS011;4483;48.622;9.230;2022-12-18T02:33:39;27.57;;;13.47;;
8893;SDS011;4483;48.622;9.230;2022-12-18T02:36:08;27.30;;;13.13;;
8893;SDS011;4483;48.622;9.230;2022-12-18T02:38:35;24.40;;;12.67;;
8893;SDS011;4483;48.622;9.230;2022-12-18T02:41:04;27.20;;;13.17;;
8893;SDS011;4483;48.622;9.230;2022-12-18T02:43:32;29.70;;;13.93;;
8893;SDS011;4483;48.622;9.230;2022-12-18T02:45:59;27.77;;;13.70;;
8893;SDS011;4483;48.622;9.230;2022-12-18T02:48:47;32.87;;;13.93;;
8893;SDS011;4483;48.622;9.230;2022-12-18T02:51:17;28.03;;;14.20;;
8893;SDS011;4483;48.622;9.230;2022-12-18T02:53:51;26.17;;;12.70;;
8893;SDS011;4483;48.622;9.230;2022-12-18T02:56:24;25.33;;;13.87;;
8893;SDS011;4483;48.622;9.230;2022-12-18T02:58:56;21.33;;;11.83;;
8893;SDS011;4483;48.622;9.230;2022-12-18T03:01:28;26.80;;;13.60;;
8893;SDS011;4483;48.622;9.230;2022-12-18T03:04:01;30.57;;;13.53;;
8893;SDS011;4483;48.622;9.230;2022-12-18T03:06:32;29.17;;;13.67;;
8893;SDS011;4483;48.622;9.230;2022-12-18T03:09:02;26.03;;;13.17;;
8893;SDS011;4483;48.622;9.230;2022-12-18T03:11:36;24.27;;;14.00;;
8893;SDS011;4483;48.622;9.230;2022-12-18T03:14:24;27.73;;;13.30;;
8893;SDS011;4483;48.622;9.230;2022-12-18T03:16:56;25.37;;;13.27;;
8893;SDS011;4483;48.622;9.230;2022-12-18T03:19:26;22.80;;;13.23;;
8893;SDS011;4483;48.622;9.230;2022-12-18T03:21:56;23.90;;;12.57;;
8893;SDS011;4483;48.622;9.230;2022-12-18T03:24:25;23.47;;;12.60;;
8893;SDS011;4483;48.622;9.230;2022-12-18T03:26:57;26.67;;;13.23;;
8893;SDS011;4483;48.622;9.230;2022-12-18T03:29:28;26.73;;;14.03;;
8893;SDS011;4483;48.622;9.230;2022-12-18T03:32:01;25.13;;;13.17;;
8893;SDS011;4483;48.622;9.230;2022-12-18T03:34:32;25.87;;;14.30;;
8893;SDS011;4483;48.622;9.230;2022-12-18T03:37:01;30.23;;;13.57;;
8893;SDS011;4483;48.622;9.230;2022-12-18T03:39:28;27.80;;;13.93;;
8893;SDS011;4483;48.622;9.230;2022-12-18T03:42:01;32.23;;;12.93;;
8893;SDS011;4483;48.622;9.230;2022-12-18T03:44:35;26.33;;;13.13;;
8893;SDS011;4483;48.622;9.230;2022-12-18T03:47:09;20.03;;;11.93;;
8893;SDS011;4483;48.622;9.230;2022-12-18T03:49:42;26.13;;;12.80;;
8893;SDS011;4483;48.622;9.230;2022-12-18T03:52:15;28.67;;;13.00;;
8893;SDS011;4483;48.622;9.230;2022-12-18T03:54:46;23.27;;;12.97;;
8893;SDS011;4483;48.622;9.230;2022-12-18T03:57:15;29.33;;;12.90;;
8893;SDS011;4483;48.622;9.230;2022-12-18T03:59:44;23.03;;;13.57;;
8893;SDS011;4483;48.622;9.230;2022-12-18T04:02:15;28.33;;;13.43;;
8893;SDS011;4483;48.622;9.230;2022-12-18T04:04:43;26.30;;;13.17;;
8893;SDS011;4483;48.622;9.230;2022-12-18T04:07:12;27.87;;;13.60;;
8893;SDS011;4483;48.622;9.230;2022-12-18T04:09:40;23.40;;;13.13;;
8893;SDS011;4483;48.622;9.230;2022-12-18T04:12:09;24.03;;;13.40;;
8893;SDS011;4483;48.622;9.230;2022-12-18T04:14:37;28.23;;;14.03;;
8893;SDS011;4483;48.622;9.230;2022-12-18T04:17:04;24.10;;;12.77;;
8893;SDS011;4483;48.622;9.230;2022-12-18T04:19:30;25.50;;;12.57;;
8893;SDS011;4483;48.622;9.230;2022-12-18T04:21:57;22.77;;;12.43;;
8893;SDS011;4483;48.622;9.230;2022-12-18T04:24:24;23.40;;;11.77;;
8893;SDS011;4483;48.622;9.230;2022-12-18T04:26:50;25.07;;;12.33;;
8893;SDS011;4483;48.622;9.230;2022-12-18T04:29:17;21.10;;;11.70;;
8893;SDS011;4483;48.622;9.230;2022-12-18T04:31:45;23.07;;;12.73;;
8893;SDS011;4483;48.622;9.230;2022-12-18T04:34:11;20.93;;;12.00;;
8893;SDS011;4483;48.622;9.230;2022-12-18T04:36:38;23.07;;;12.00;;
8893;SDS011;4483;48.622;9.230;2022-12-18T04:39:05;25.33;;;13.80;;
8893;SDS011;4483;48.622;9.230;2022-12-18T04:41:31;25.37;;;13.00;;
8893;SDS011;4483;48.622;9.230;2022-12-18T04:43:58;24.67;;;13.73;;
8893;SDS011;4483;48.622;9.230;2022-12-18T04:46:24;27.57;;;13.37;;
8893;SDS011;4483;48.622;9.230;2022-12-18T04:48:53;23.23;;;12.57;;
8893;SDS011;4483;48.622;9.230;2022-12-18T04:51:19;22.67;;;11.47;;
8893;SDS011;4483;48.622;9.230;2022-12-18T04:53:46;27.30;;;12.60;;
8893;SDS011;4483;48.622;9.230;2022-12-18T04:56:13;24.23;;;13.17;;
8893;SDS011;4483;48.622;9.230;2022-12-18T04:58:41;26.67;;;13.07;;
8893;SDS011;4483;48.622;9.230;2022-12-18T05:01:10;24.83;;;12.17;;
8893;SDS011;4483;48.622;9.230;2022-12-18T05:03:37;25.60;;;13.23;;
8893;SDS011;4483;48.622;9.230;2022-12-18T05:06:06;21.80;;;12.00;;
8893;SDS011;4483;48.622;9.230;2022-12-18T05:08:33;23.83;;;12.43;;
8893;SDS011;4483;48.622;9.230;2022-12-18T05:11:00;24.80;;;12.40;;
8893;SDS011;4483;48.622;9.230;2022-12-18T05:13:28;20.77;;;12.00;;
8893;SDS011;4483;48.622;9.230;2022-12-18T05:15:54;22.27;;;11.70;;
8893;SDS011;4483;48.622;9.230;2022-12-18T05:18:21;22.77;;;12.60;;
8893;SDS011;4483;48.622;9.230;2022-12-18T05:20:49;24.37;;;12.23;;
8893;SDS011;4483;48.622;9.230;2022-12-18T05:23:17;23.90;;;11.93;;
8893;SDS011;4483;48.622;9.230;2022-12-18T05:25:51;30.83;;;12.33;;
8893;SDS011;4483;48.622;9.230;2022-12-18T05:28:23;24.30;;;11.77;;
8893;SDS011;4483;48.622;9.230;2022-12-18T05:30:56;26.10;;;12.97;;
8893;SDS011;4483;48.622;9.230;2022-12-18T05:33:24;23.87;;;12.10;;
8893;SDS011;4483;48.622;9.230;2022-12-18T05:35:53;24.23;;;12.93;;
8893;SDS011;4483;48.622;9.230;2022-12-18T05:38:23;25.60;;;13.07;;
8893;SDS011;4483;48.622;9.230;2022-12-18T05:40:52;28.93;;;11.40;;
8893;SDS011;4483;48.622;9.230;2022-12-18T05:43:20;22.37;;;11.50;;
8893;SDS011;4483;48.622;9.230;2022-12-18T05:45:48;26.30;;;12.20;;
8893;SDS011;4483;48.622;9.230;2022-12-18T05:48:15;25.43;;;12.53;;
8893;SDS011;4483;48.622;9.230;2022-12-18T05:50:42;25.67;;;13.10;;
8893;SDS011;4483;48.622;9.230;2022-12-18T05:53:10;29.60;;;14.37;;
8893;SDS011;4483;48.622;9.230;2022-12-18T05:55:39;26.03;;;12.33;;
8893;SDS011;4483;48.622;9.230;2022-12-18T05:58:08;21.97;;;11.70;;
8893;SDS011;4483;48.622;9.230;2022-12-18T06:00:36;22.20;;;12.13;;
8893;SDS011;4483;48.622;9.230;2022-12-18T06:03:05;25.20;;;12.20;;
8893;SDS011;4483;48.622;9.230;2022-12-18T06:05:34;22.03;;;11.63;;
8893;SDS011;4483;48.622;9.230;2022-12-18T06:08:02;20.97;;;10.93;;
8893;SDS011;4483;48.622;9.230;2022-12-18T06:10:29;19.17;;;11.17;;
8893;SDS011;4483;48.622;9.230;2022-12-18T06:12:57;22.60;;;12.23;;
8893;SDS011;4483;48.622;9.230;2022-12-18T06:15:24;24.97;;;12.40;;
8893;SDS011;4483;48.622;9.230;2022-12-18T06:17:50;21.70;;;11.87;;
8893;SDS011;4483;48.622;9.230;2022-12-18T06:20:17;21.30;;;11.37;;
8893;SDS011;4483;48.622;9.230;2022-12-18T06:22:44;23.10;;;12.67;;
8893;SDS011;4483;48.622;9.230;2022-12-18T06:25:11;24.53;;;12.63;;
8893;SDS011;4483;48.622;9.230;2022-12-18T06:27:38;24.60;;;12.40;;
8893;SDS011;4483;48.622;9.230;2022-12-18T06:30:06;26.53;;;12.03;;
8893;SDS011;4483;48.622;9.230;2022-12-18T06:32:34;20.13;;;11.17;;
8893;SDS011;4483;48.622;9.230;2022-12-18T06:35:00;23.53;;;11.60;;
8893;SDS011;4483;48.622;9.230;2022-12-18T06:37:27;26.20;;;12.20;;
8893;SDS011;4483;48.622;9.230;2022-12-18T06:39:54;26.00;;;11.93;;
8893;SDS011;4483;48.622;9.230;2022-12-18T06:42:22;24.93;;;11.47;;
8893;SDS011;4483;48.622;9.230;2022-12-18T06:44:49;23.33;;;12.13;;
8893;SDS011;4483;48.622;9.230;2022-12-18T06:47:17;18.43;;;11.20;;
8893;SDS011;4483;48.622;9.230;2022-12-18T06:49:44;30.17;;;12.30;;
8893;SDS011;4483;48.622;9.230;2022-12-18T06:52:10;25.43;;;12.50;;
8893;SDS011;4483;48.622;9.230;2022-12-18T06:54:37;22.10;;;12.20;;
8893;SDS011;4483;48.622;9.230;2022-12-18T06:57:04;21.50;;;11.50;;
8893;SDS011;4483;48.622;9.230;2022-12-18T06:59:30;26.03;;;13.03;;
8893;SDS011;4483;48.622;9.230;2022-12-18T07:01:57;32.97;;;14.33;;
8893;SDS011;4483;48.622;9.230;2022-12-18T07:04:28;25.53;;;11.93;;
8893;SDS011;4483;48.622;9.230;2022-12-18T07:06:55;17.47;;;9.57;;
8893;SDS011;4483;48.622;9.230;2022-12-18T07:09:22;18.73;;;11.17;;
8893;SDS011;4483;48.622;9.230;2022-12-18T07:11:48;22.90;;;11.80;;
8893;SDS011;4483;48.622;9.230;2022-12-18T07:14:15;21.97;;;11.40;;
8893;SDS011;4483;48.622;9.230;2022-12-18T07:16:42;24.63;;;12.50;;
8893;SDS011;4483;48.622;9.230;2022-12-18T07:19:08;20.93;;;11.33;;
8893;SDS011;4483;48.622;9.230;2022-12-18T07:21:36;21.77;;;11.93;;
8893;SDS011;4483;48.622;9.230;2022-12-18T07:24:03;22.27;;;11.60;;
8893;SDS011;4483;48.622;9.230;2022-12-18T07:26:30;23.30;;;11.63;;
8893;SDS011;4483;48.622;9.230;2022-12-18T07:28:57;27.47;;;11.67;;
8893;SDS011;4483;48.622;9.230;2022-12-18T07:31:24;23.40;;;12.80;;
8893;SDS011;4483;48.622;9.230;2022-12-18T07:33:52;23.47;;;11.70;;
8893;SDS011;4483;48.622;9.230;2022-12-18T07:36:19;22.03;;;12.73;;
8893;SDS011;4483;48.622;9.230;2022-12-18T07:38:47;20.90;;;11.90;;
8893;SDS011;4483;48.622;9.230;2022-12-18T07:41:16;21.87;;;10.60;;
8893;SDS011;4483;48.622;9.230;2022-12-18T07:43:43;32.83;;;11.47;;
8893;SDS011;4483;48.622;9.230;2022-12-18T07:46:10;22.40;;;12.57;;
8893;SDS011;4483;48.622;9.230;2022-12-18T07:48:38;22.47;;;11.33;;
8893;SDS011;4483;48.622;9.230;2022-12-18T07:51:05;27.70;;;12.50;;
8893;SDS011;4483;48.622;9.230;2022-12-18T07:53:33;23.90;;;11.57;;
8893;SDS011;4483;48.622;9.230;2022-12-18T07:56:03;25.27;;;11.90;;
8893;SDS011;4483;48.622;9.230;2022-12-18T07:58:32;21.87;;;13.30;;
8893;SDS011;4483;48.622;9.230;2022-12-18T08:01:02;24.73;;;13.03;;
8893;SDS011;4483;48.622;9.230;2022-12-18T08:03:30;25.70;;;13.33;;
8893;SDS011;4483;48.622;9.230;2022-12-18T08:05:58;24.57;;;11.10;;
8893;SDS011;4483;48.622;9.230;2022-12-18T08:08:25;20.90;;;12.97;;
8893;SDS011;4483;48.622;9.230;2022-12-18T08:10:52;26.17;;;13.00;;
8893;SDS011;4483;48.622;9.230;2022-12-18T08:13:20;27.07;;;12.87;;
8893;SDS011;4483;48.622;9.230;2022-12-18T08:15:54;22.50;;;12.40;;
8893;SDS011;4483;48.622;9.230;2022-12-18T08:18:22;28.17;;;14.07;;
8893;SDS011;4483;48.622;9.230;2022-12-18T08:20:48;28.70;;;14.27;;
8893;SDS011;4483;48.622;9.230;2022-12-18T08:23:15;23.20;;;13.33;;
8893;SDS011;4483;48.622;9.230;2022-12-18T08:25:42;27.23;;;13.87;;
8893;SDS011;4483;48.622;9.230;2022-12-18T08:28:09;27.73;;;14.57;;
8893;SDS011;4483;48.622;9.230;2022-12-18T08:30:37;25.67;;;13.23;;
8893;SDS011;4483;48.622;9.230;2022-12-18T08:33:03;26.47;;;13.40;;
8893;SDS011;4483;48.622;9.230;2022-12-18T08:35:34;22.83;;;12.87;;
8893;SDS011;4483;48.622;9.230;2022-12-18T08:38:01;31.93;;;14.60;;
8893;SDS011;4483;48.622;9.230;2022-12-18T08:40:27;22.67;;;12.93;;
8893;SDS011;4483;48.622;9.230;2022-12-18T08:42:54;21.23;;;12.73;;
8893;SDS011;4483;48.622;9.230;2022-12-18T08:45:39;27.67;;;13.80;;
8893;SDS011;4483;48.622;9.230;2022-12-18T08:48:06;28.87;;;14.73;;
8893;SDS011;4483;48.622;9.230;2022-12-18T08:50:32;22.57;;;13.07;;
8893;SDS011;4483;48.622;9.230;2022-12-18T08:52:59;21.63;;;12.70;;
8893;SDS011;4483;48.622;9.230;2022-12-18T08:55:27;19.43;;;12.40;;
8893;SDS011;4483;48.622;9.230;2022-12-18T08:57:53;23.50;;;13.10;;
8893;SDS011;4483;48.622;9.230;2022-12-18T09:00:20;26.13;;;12.23;;
8893;SDS011;4483;48.622;9.230;2022-12-18T09:02:48;20.20;;;12.77;;
8893;SDS011;4483;48.622;9.230;2022-12-18T09:05:15;23.27;;;12.93;;
8893;SDS011;4483;48.622;9.230;2022-12-18T09:07:42;23.37;;;12.83;;
8893;SDS011;4483;48.622;9.230;2022-12-18T09:10:08;23.60;;;12.67;;
8893;SDS011;4483;48.622;9.230;2022-12-18T09:12:35;20.60;;;12.50;;
8893;SDS011;4483;48.622;9.230;2022-12-18T09:15:02;20.23;;;12.10;;
8893;SDS011;4483;48.622;9.230;2022-12-18T09:17:29;20.97;;;12.97;;
8893;SDS011;4483;48.622;9.230;2022-12-18T09:19:57;23.97;;;13.03;;
8893;SDS011;4483;48.622;9.230;2022-12-18T09:22:23;19.13;;;12.47;;
8893;SDS011;4483;48.622;9.230;2022-12-18T09:24:50;18.60;;;12.70;;
8893;SDS011;4483;48.622;9.230;2022-12-18T09:27:16;23.30;;;13.27;;
8893;SDS011;4483;48.622;9.230;2022-12-18T09:29:43;23.47;;;12.83;;
8893;SDS011;4483;48.622;9.230;2022-12-18T09:32:10;19.90;;;13.83;;
8893;SDS011;4483;48.622;9.230;2022-12-18T09:34:36;18.33;;;12.30;;
8893;SDS011;4483;48.622;9.230;2022-12-18T09:37:04;19.47;;;12.87;;
8893;SDS011;4483;48.622;9.230;2022-12-18T09:39:31;22.23;;;13.00;;
8893;SDS011;4483;48.622;9.230;2022-12-18T09:41:57;21.57;;;13.43;;
8893;SDS011;4483;48.622;9.230;2022-12-18T09:44:25;23.33;;;13.60;;
8893;SDS011;4483;48.622;9.230;2022-12-18T09:46:54;21.87;;;13.47;;
8893;SDS011;4483;48.622;9.230;2022-12-18T09:49:29;25.17;;;15.30;;
8893;SDS011;4483;48.622;9.230;2022-12-18T09:52:02;23.77;;;14.63;;
8893;SDS011;4483;48.622;9.230;2022-12-18T09:54:38;25.53;;;15.50;;
8893;SDS011;4483;48.622;9.230;2022-12-18T09:57:13;23.47;;;14.97;;
8893;SDS011;4483;48.622;9.230;2022-12-18T09:59:41;24.73;;;16.13;;
8893;SDS011;4483;48.622;9.230;2022-12-18T10:02:17;28.87;;;17.10;;
8893;SDS011;4483;48.622;9.230;2022-12-18T10:04:48;32.10;;;17.00;;
8893;SDS011;4483;48.622;9.230;2022-12-18T10:07:29;29.63;;;17.30;;
8893;SDS011;4483;48.622;9.230;2022-12-18T10:10:06;29.90;;;17.30;;
8893;SDS011;4483;48.622;9.230;2022-12-18T10:12:40;28.37;;;17.53;;
8893;SDS011;4483;48.622;9.230;2022-12-18T10:15:19;28.30;;;18.13;;
8893;SDS011;4483;48.622;9.230;2022-12-18T10:17:54;30.63;;;18.17;;
8893;SDS011;4483;48.622;9.230;2022-12-18T10:20:29;28.57;;;17.57;;
8893;SDS011;4483;48.622;9.230;2022-12-18T10:23:03;29.97;;;18.23;;
8893;SDS011;4483;48.622;9.230;2022-12-18T10:25:42;35.10;;;20.87;;
8893;SDS011;4483;48.622;9.230;2022-12-18T10:28:17;31.70;;;17.97;;
8893;SDS011;4483;48.622;9.230;2022-12-18T10:30:45;32.30;;;18.20;;
8893;SDS011;4483;48.622;9.230;2022-12-18T10:33:12;29.00;;;17.00;;
8893;SDS011;4483;48.622;9.230;2022-12-18T10:35:44;26.87;;;17.03;;
8893;SDS011;4483;48.622;9.230;2022-12-18T10:38:21;32.00;;;17.87;;
8893;SDS011;4483;48.622;9.230;2022-12-18T10:40:53;28.70;;;16.20;;
8893;SDS011;4483;48.622;9.230;2022-12-18T10:43:22;27.17;;;16.50;;
8893;SDS011;4483;48.622;9.230;2022-12-18T10:45:58;26.70;;;16.73;;
8893;SDS011;4483;48.622;9.230;2022-12-18T10:48:39;27.63;;;17.40;;
8893;SDS011;4483;48.622;9.230;2022-12-18T10:51:19;27.37;;;17.60;;
8893;SDS011;4483;48.622;9.230;2022-12-18T10:53:51;26.20;;;17.43;;
8893;SDS011;4483;48.622;9.230;2022-12-18T10:56:21;25.87;;;17.60;;
8893;SDS011;4483;48.622;9.230;2022-12-18T10:58:55;31.33;;;18.17;;
8893;SDS011;4483;48.622;9.230;2022-12-18T11:01:23;31.30;;;17.37;;
8893;SDS011;4483;48.622;9.230;2022-12-18T11:03:58;31.87;;;19.53;;
8893;SDS011;4483;48.622;9.230;2022-12-18T11:06:26;29.17;;;20.30;;
8893;SDS011;4483;48.622;9.230;2022-12-18T11:08:57;29.80;;;20.17;;
8893;SDS011;4483;48.622;9.230;2022-12-18T11:11:26;32.40;;;20.10;;
8893;SDS011;4483;48.622;9.230;2022-12-18T11:14:00;37.53;;;21.20;;
8893;SDS011;4483;48.622;9.230;2022-12-18T11:16:30;35.33;;;20.73;;
8893;SDS011;4483;48.622;9.230;2022-12-18T11:19:09;33.33;;;20.97;;
8893;SDS011;4483;48.622;9.230;2022-12-18T11:21:46;36.30;;;20.27;;
8893;SDS011;4483;48.622;9.230;2022-12-18T11:24:18;40.43;;;20.17;;
8893;SDS011;4483;48.622;9.230;2022-12-18T11:26:49;32.30;;;19.63;;
8893;SDS011;4483;48.622;9.230;2022-12-18T11:29:16;38.77;;;21.17;;
8893;SDS011;4483;48.622;9.230;2022-12-18T11:31:48;29.67;;;20.30;;
8893;SDS011;4483;48.622;9.230;2022-12-18T11:34:16;35.03;;;21.10;;
8893;SDS011;4483;48.622;9.230;2022-12-18T11:36:48;34.73;;;20.50;;
8893;SDS011;4483;48.622;9.230;2022-12-18T11:39:17;33.03;;;20.77;;
8893;SDS011;4483;48.622;9.230;2022-12-18T11:41:48;40.43;;;24.27;;
8893;SDS011;4483;48.622;9.230;2022-12-18T11:44:42;42.87;;;25.13;;
8893;SDS011;4483;48.622;9.230;2022-12-18T11:47:16;43.50;;;24.30;;
8893;SDS011;4483;48.622;9.230;2022-12-18T11:49:51;40.07;;;23.50;;
8893;SDS011;4483;48.622;9.230;2022-12-18T11:52:19;35.77;;;20.63;;
8893;SDS011;4483;48.622;9.230;2022-12-18T11:54:51;34.93;;;22.07;;
8893;SDS011;4483;48.622;9.230;2022-12-18T11:57:23;38.77;;;23.17;;
8893;SDS011;4483;48.622;9.230;2022-12-18T12:00:01;35.67;;;21.80;;
8893;SDS011;4483;48.622;9.230;2022-12-18T12:02:40;33.10;;;21.43;;
8893;SDS011;4483;48.622;9.230;2022-12-18T12:05:18;33.40;;;21.20;;
8893;SDS011;4483;48.622;9.230;2022-12-18T12:07:54;35.97;;;22.43;;
8893;SDS011;4483;48.622;9.230;2022-12-18T12:10:32;40.37;;;22.87;;
8893;SDS011;4483;48.622;9.230;2022-12-18T12:13:16;36.20;;;22.50;;
8893;SDS011;4483;48.622;9.230;2022-12-18T12:15:56;37.53;;;22.77;;
8893;SDS011;4483;48.622;9.230;2022-12-18T12:18:34;33.17;;;22.60;;
8893;SDS011;4483;48.622;9.230;2022-12-18T12:21:15;34.47;;;22.47;;
8893;SDS011;4483;48.622;9.230;2022-12-18T12:23:46;33.57;;;21.33;;
8893;SDS011;4483;48.622;9.230;2022-12-18T12:26:22;32.23;;;20.87;;
8893;SDS011;4483;48.622;9.230;2022-12-18T12:29:02;33.87;;;22.07;;
8893;SDS011;4483;48.622;9.230;2022-12-18T12:31:43;34.27;;;22.47;;
8893;SDS011;4483;48.622;9.230;2022-12-18T12:34:22;37.67;;;23.83;;
8893;SDS011;4483;48.622;9.230;2022-12-18T12:37:02;37.93;;;22.20;;
8893;SDS011;4483;48.622;9.230;2022-12-18T12:39:39;33.10;;;22.63;;
8893;SDS011;4483;48.622;9.230;2022-12-18T12:42:10;31.87;;;20.90;;
8893;SDS011;4483;48.622;9.230;2022-12-18T12:45:03;34.33;;;22.17;;
8893;SDS011;4483;48.622;9.230;2022-12-18T12:47:33;35.97;;;21.67;;
8893;SDS011;4483;48.622;9.230;2022-12-18T12:50:05;36.63;;;21.73;;
8893;SDS011;4483;48.622;9.230;2022-12-18T12:52:39;34.60;;;21.70;;
8893;SDS011;4483;48.622;9.230;2022-12-18T12:55:12;42.50;;;23.27;;
8893;SDS011;4483;48.622;9.230;2022-12-18T12:57:43;38.47;;;23.07;;
8893;SDS011;4483;48.622;9.230;2022-12-18T13:00:16;37.67;;;23.43;;
8893;SDS011;4483;48.622;9.230;2022-12-18T13:02:47;33.53;;;22.20;;
8893;SDS011;4483;48.622;9.230;2022-12-18T13:05:19;38.93;;;23.50;;
8893;SDS011;4483;48.622;9.230;2022-12-18T13:07:53;36.83;;;22.63;;
8893;SDS011;4483;48.622;9.230;2022-12-18T13:10:24;38.47;;;25.20;;
8893;SDS011;4483;48.622;9.230;2022-12-18T13:13:00;37.50;;;24.97;;
8893;SDS011;4483;48.622;9.230;2022-12-18T13:15:36;35.43;;;23.37;;
8893;SDS011;4483;48.622;9.230;2022-12-18T13:18:06;33.47;;;21.83;;
8893;SDS011;4483;48.622;9.230;2022-12-18T13:20:41;34.40;;;21.37;;
8893;SDS011;4483;48.622;9.230;2022-12-18T13:23:26;38.67;;;24.00;;
8893;SDS011;4483;48.622;9.230;2022-12-18T13:28:59;42.27;;;31.40;;
8893;SDS011;4483;48.622;9.230;2022-12-18T13:34:26;41.77;;;23.87;;
8893;SDS011;4483;48.622;9.230;2022-12-18T13:36:55;36.63;;;26.30;;
8893;SDS011;4483;48.622;9.230;2022-12-18T13:39:42;44.13;;;29.10;;
8893;SDS011;4483;48.622;9.230;2022-12-18T13:45:40;33.27;;;21.30;;
8893;SDS011;4483;48.622;9.230;2022-12-18T13:48:18;31.53;;;20.27;;
8893;SDS011;4483;48.622;9.230;2022-12-18T13:50:53;37.53;;;21.20;;
8893;SDS011;4483;48.622;9.230;2022-12-18T13:53:25;33.57;;;19.70;;
8893;SDS011;4483;48.622;9.230;2022-12-18T13:55:55;33.43;;;19.37;;
8893;SDS011;4483;48.622;9.230;2022-12-18T13:58:22;30.90;;;20.47;;
8893;SDS011;4483;48.622;9.230;2022-12-18T14:00:49;36.37;;;21.10;;
8893;SDS011;4483;48.622;9.230;2022-12-18T14:03:18;33.40;;;21.37;;
8893;SDS011;4483;48.622;9.230;2022-12-18T14:05:52;32.23;;;20.40;;
8893;SDS011;4483;48.622;9.230;2022-12-18T14:08:21;36.80;;;20.00;;
8893;SDS011;4483;48.622;9.230;2022-12-18T14:10:48;31.60;;;20.03;;
8893;SDS011;4483;48.622;9.230;2022-12-18T14:13:19;37.03;;;20.47;;
8893;SDS011;4483;48.622;9.230;2022-12-18T14:15:50;31.87;;;19.33;;
8893;SDS011;4483;48.622;9.230;2022-12-18T14:18:20;33.30;;;19.57;;
8893;SDS011;4483;48.622;9.230;2022-12-18T14:20:49;32.53;;;20.53;;
8893;SDS011;4483;48.622;9.230;2022-12-18T14:23:27;37.40;;;19.97;;
8893;SDS011;4483;48.622;9.230;2022-12-18T14:25:55;33.87;;;20.33;;
8893;SDS011;4483;48.622;9.230;2022-12-18T14:28:22;32.97;;;20.27;;
8893;SDS011;4483;48.622;9.230;2022-12-18T14:30:49;32.07;;;20.70;;
8893;SDS011;4483;48.622;9.230;2022-12-18T14:33:19;34.83;;;20.30;;
8893;SDS011;4483;48.622;9.230;2022-12-18T14:35:52;30.03;;;17.73;;
8893;SDS011;4483;48.622;9.230;2022-12-18T14:38:23;23.67;;;15.63;;
8893;SDS011;4483;48.622;9.230;2022-12-18T14:41:00;25.00;;;16.53;;
8893;SDS011;4483;48.622;9.230;2022-12-18T14:43:31;26.20;;;16.70;;
8893;SDS011;4483;48.622;9.230;2022-12-18T14:45:58;26.77;;;16.40;;
8893;SDS011;4483;48.622;9.230;2022-12-18T14:48:35;26.67;;;16.23;;
8893;SDS011;4483;48.622;9.230;2022-12-18T14:51:04;28.20;;;16.80;;
8893;SDS011;4483;48.622;9.230;2022-12-18T14:53:33;30.93;;;17.47;;
8893;SDS011;4483;48.622;9.230;2022-12-18T14:56:03;31.47;;;17.73;;
8893;SDS011;4483;48.622;9.230;2022-12-18T14:58:38;36.00;;;20.27;;
8893;SDS011;4483;48.622;9.230;2022-12-18T15:01:05;31.67;;;18.77;;
8893;SDS011;4483;48.622;9.230;2022-12-18T15:03:32;30.40;;;19.07;;
8893;SDS011;4483;48.622;9.230;2022-12-18T15:06:14;32.40;;;18.27;;
8893;SDS011;4483;48.622;9.230;2022-12-18T15:08:42;34.50;;;18.50;;
8893;SDS011;4483;48.622;9.230;2022-12-18T15:11:23;32.63;;;19.83;;
8893;SDS011;4483;48.622;9.230;2022-12-18T15:13:52;38.07;;;22.43;;
8893;SDS011;4483;48.622;9.230;2022-12-18T15:16:18;34.70;;;19.80;;